createdAt,value
2023-02-06T00:00:23.798Z,0.00
2023-02-06T00:01:23.810Z,0.00
2023-02-06T00:02:23.884Z,0.00
2023-02-06T00:03:23.795Z,0.00
2023-02-06T00:04:23.777Z,0.00
2023-02-06T00:05:23.812Z,0.00
2023-02-06T00:06:23.769Z,0.00
2023-02-06T00:07:23.763Z,0.00
2023-02-06T00:08:23.781Z,0.00
2023-02-06T00:09:23.737Z,0.00
2023-02-06T00:10:23.730Z,0.00
2023-02-06T00:11:23.729Z,0.00
2023-02-06T00:12:23.729Z,0.00
2023-02-06T00:13:23.717Z,0.00
2023-02-06T00:14:23.697Z,0.00
2023-02-06T00:15:23.693Z,0.00
2023-02-06T00:16:23.686Z,0.00
2023-02-06T00:17:23.701Z,0.00
2023-02-06T00:18:23.677Z,0.00
2023-02-06T00:19:23.669Z,0.00
2023-02-06T00:20:23.656Z,0.00
2023-02-06T00:21:23.676Z,0.00
2023-02-06T00:22:23.679Z,0.00
2023-02-06T00:23:23.659Z,0.00
2023-02-06T00:24:23.637Z,0.00
2023-02-06T00:25:23.636Z,0.00
2023-02-06T00:26:23.644Z,0.00
2023-02-06T00:27:23.613Z,0.00
2023-02-06T00:28:23.629Z,0.00
2023-02-06T00:29:23.611Z,0.00
2023-02-06T00:30:23.643Z,0.00
2023-02-06T00:31:23.609Z,0.00
2023-02-06T00:32:23.643Z,0.00
2023-02-06T00:33:23.594Z,0.00
2023-02-06T00:34:23.571Z,0.00
2023-02-06T00:35:23.574Z,0.00
2023-02-06T00:36:23.584Z,0.00
2023-02-06T00:37:23.549Z,0.00
2023-02-06T00:38:23.578Z,0.00
2023-02-06T00:39:23.540Z,0.00
2023-02-06T00:40:23.544Z,0.00
2023-02-06T00:41:23.558Z,0.00
2023-02-06T00:42:23.521Z,0.00
2023-02-06T00:43:23.530Z,0.00
2023-02-06T00:44:23.517Z,0.00
2023-02-06T00:45:23.523Z,0.00
2023-02-06T00:46:23.596Z,0.00
2023-02-06T00:47:23.490Z,0.00
2023-02-06T00:48:23.494Z,0.00
2023-02-06T00:49:23.503Z,0.00
2023-02-06T00:50:23.471Z,0.00
2023-02-06T00:51:23.474Z,0.00
2023-02-06T00:52:23.466Z,0.00
2023-02-06T00:53:23.449Z,0.00
2023-02-06T00:54:23.462Z,0.00
2023-02-06T00:55:23.428Z,0.00
2023-02-06T00:56:23.443Z,0.00
2023-02-06T00:57:23.430Z,0.00
2023-02-06T00:58:23.422Z,0.00
2023-02-06T00:59:23.417Z,0.00
2023-02-06T01:00:23.406Z,0.00
2023-02-06T01:01:23.470Z,0.00
2023-02-06T01:02:23.416Z,0.00
2023-02-06T01:03:23.398Z,0.00
2023-02-06T01:04:23.373Z,0.00
2023-02-06T01:05:23.375Z,0.00
2023-02-06T01:06:23.357Z,0.00
2023-02-06T01:07:23.355Z,0.00
2023-02-06T01:08:23.354Z,0.00
2023-02-06T01:09:23.349Z,0.00
2023-02-06T01:10:23.334Z,0.00
2023-02-06T01:11:23.319Z,0.00
2023-02-06T01:12:23.323Z,0.00
2023-02-06T01:13:23.311Z,0.00
2023-02-06T01:14:23.317Z,0.00
2023-02-06T01:15:23.289Z,0.00
2023-02-06T01:16:23.314Z,0.00
2023-02-06T01:17:23.285Z,0.00
2023-02-06T01:18:23.275Z,0.00
2023-02-06T01:19:23.274Z,0.00
2023-02-06T01:20:23.268Z,0.00
2023-02-06T01:21:23.262Z,0.00
2023-02-06T01:22:23.251Z,0.00
2023-02-06T01:23:23.233Z,0.00
2023-02-06T01:24:24.234Z,0.00
2023-02-06T01:25:23.228Z,0.00
2023-02-06T01:26:23.236Z,0.00
2023-02-06T01:27:23.278Z,0.00
2023-02-06T01:28:23.216Z,0.00
2023-02-06T01:29:23.205Z,0.00
2023-02-06T01:30:23.219Z,0.00
2023-02-06T01:31:23.233Z,0.00
2023-02-06T01:32:23.181Z,0.00
2023-02-06T01:33:23.179Z,0.00
2023-02-06T01:34:23.263Z,0.00
2023-02-06T01:35:23.164Z,0.00
2023-02-06T01:36:23.162Z,0.00
2023-02-06T01:37:23.149Z,0.00
2023-02-06T01:38:23.134Z,0.00
2023-02-06T01:39:24.134Z,0.00
2023-02-06T01:40:23.134Z,0.00
2023-02-06T01:41:23.127Z,0.00
2023-02-06T01:42:23.134Z,0.00
2023-02-06T01:43:23.110Z,0.00
2023-02-06T01:44:23.113Z,0.00
2023-02-06T01:45:23.094Z,0.00
2023-02-06T01:46:23.107Z,0.00
2023-02-06T01:47:23.114Z,0.00
2023-02-06T01:48:23.075Z,0.00
2023-02-06T01:49:23.066Z,0.00
2023-02-06T01:50:23.050Z,0.00
2023-02-06T01:51:23.050Z,0.00
2023-02-06T01:52:23.051Z,0.00
2023-02-06T01:53:23.065Z,0.00
2023-02-06T01:54:23.030Z,0.00
2023-02-06T01:55:23.035Z,0.00
2023-02-06T01:56:23.031Z,0.00
2023-02-06T01:57:23.014Z,0.00
2023-02-06T01:58:23.030Z,0.00
2023-02-06T01:59:23.048Z,0.00
2023-02-06T02:00:22.994Z,0.00
2023-02-06T02:01:22.994Z,0.00
2023-02-06T02:02:22.990Z,0.00
2023-02-06T02:03:22.978Z,0.00
2023-02-06T02:04:22.976Z,0.00
2023-02-06T02:05:22.961Z,0.00
2023-02-06T02:06:22.946Z,0.00
2023-02-06T02:07:22.946Z,0.00
2023-02-06T02:08:22.953Z,0.00
2023-02-06T02:09:23.036Z,0.00
2023-02-06T02:10:22.939Z,0.00
2023-02-06T02:11:22.984Z,0.00
2023-02-06T02:12:22.924Z,0.00
2023-02-06T02:13:23.036Z,0.00
2023-02-06T02:14:22.910Z,0.00
2023-02-06T02:15:22.908Z,0.00
2023-02-06T02:16:22.950Z,0.00
2023-02-06T02:17:23.894Z,0.00
2023-02-06T02:18:22.886Z,0.00
2023-02-06T02:19:22.903Z,0.00
2023-02-06T02:20:22.876Z,0.00
2023-02-06T02:21:22.866Z,0.00
2023-02-06T02:22:22.849Z,0.00
2023-02-06T02:23:22.852Z,0.00
2023-02-06T02:24:22.863Z,0.00
2023-02-06T02:25:22.838Z,0.00
2023-02-06T02:26:22.829Z,0.00
2023-02-06T02:27:22.825Z,0.00
2023-02-06T02:28:22.826Z,0.00
2023-02-06T02:29:22.811Z,0.00
2023-02-06T02:30:22.841Z,0.00
2023-02-06T02:31:22.814Z,0.00
2023-02-06T02:32:22.785Z,0.00
2023-02-06T02:33:22.790Z,0.00
2023-02-06T02:34:22.773Z,0.00
2023-02-06T02:35:22.809Z,0.00
2023-02-06T02:36:22.786Z,0.00
2023-02-06T02:37:22.758Z,0.00
2023-02-06T02:38:22.738Z,0.00
2023-02-06T02:39:22.750Z,0.00
2023-02-06T02:40:22.738Z,0.00
2023-02-06T02:41:22.737Z,0.00
2023-02-06T02:42:22.754Z,0.00
2023-02-06T02:43:22.711Z,0.00
2023-02-06T02:44:22.709Z,0.00
2023-02-06T02:45:22.717Z,0.00
2023-02-06T02:46:22.707Z,0.00
2023-02-06T02:47:22.680Z,0.00
2023-02-06T02:48:22.680Z,0.00
2023-02-06T02:49:22.676Z,0.00
2023-02-06T02:50:22.658Z,0.00
2023-02-06T02:51:22.674Z,0.00
2023-02-06T02:52:22.652Z,0.00
2023-02-06T02:53:22.639Z,0.00
2023-02-06T02:54:22.632Z,0.00
2023-02-06T02:55:22.621Z,0.00
2023-02-06T02:56:22.640Z,0.00
2023-02-06T02:57:22.644Z,0.00
2023-02-06T02:58:22.612Z,0.00
2023-02-06T02:59:22.593Z,0.00
2023-02-06T03:00:22.613Z,0.00
2023-02-06T03:01:22.594Z,0.00
2023-02-06T03:02:22.636Z,0.00
2023-02-06T03:03:22.586Z,0.00
2023-02-06T03:04:22.573Z,0.00
2023-02-06T03:05:22.565Z,0.00
2023-02-06T03:06:22.546Z,0.00
2023-02-06T03:07:22.567Z,0.00
2023-02-06T03:08:22.535Z,0.00
2023-02-06T03:09:22.539Z,0.00
2023-02-06T03:10:22.539Z,0.00
2023-02-06T03:11:22.506Z,0.00
2023-02-06T03:12:22.550Z,0.00
2023-02-06T03:13:22.558Z,0.00
2023-02-06T03:14:22.506Z,0.00
2023-02-06T03:15:22.487Z,0.00
2023-02-06T03:16:22.540Z,0.00
2023-02-06T03:17:22.517Z,0.00
2023-02-06T03:18:22.478Z,0.00
2023-02-06T03:19:22.474Z,0.00
2023-02-06T03:20:22.467Z,0.00
2023-02-06T03:21:22.463Z,0.00
2023-02-06T03:22:22.462Z,0.00
2023-02-06T03:23:22.452Z,0.00
2023-02-06T03:24:22.435Z,0.00
2023-02-06T03:25:22.436Z,0.00
2023-02-06T03:26:22.449Z,0.00
2023-02-06T03:27:22.426Z,0.00
2023-02-06T03:28:22.429Z,0.00
2023-02-06T03:29:22.478Z,0.00
2023-02-06T03:30:22.425Z,0.00
2023-02-06T03:31:22.444Z,0.00
2023-02-06T03:32:23.387Z,0.00
2023-02-06T03:33:22.407Z,0.00
2023-02-06T03:34:22.372Z,0.00
2023-02-06T03:35:22.382Z,0.00
2023-02-06T03:36:22.356Z,0.00
2023-02-06T03:37:22.340Z,0.00
2023-02-06T03:38:22.344Z,0.00
2023-02-06T03:39:22.348Z,0.00
2023-02-06T03:40:22.332Z,0.00
2023-02-06T03:41:22.320Z,0.00
2023-02-06T03:42:22.305Z,0.00
2023-02-06T03:43:22.308Z,0.00
2023-02-06T03:44:22.301Z,0.00
2023-02-06T03:45:22.404Z,0.00
2023-02-06T03:46:22.313Z,0.00
2023-02-06T03:47:22.296Z,0.00
2023-02-06T03:48:22.266Z,0.00
2023-02-06T03:49:22.270Z,0.00
2023-02-06T03:50:22.259Z,0.00
2023-02-06T03:51:22.284Z,0.00
2023-02-06T03:52:22.232Z,0.00
2023-02-06T03:53:22.234Z,0.00
2023-02-06T03:54:22.227Z,0.00
2023-02-06T03:55:22.230Z,0.00
2023-02-06T03:56:22.249Z,0.00
2023-02-06T03:57:22.197Z,0.00
2023-02-06T03:58:24.451Z,0.00
2023-02-06T03:59:22.207Z,0.00
2023-02-06T04:00:22.189Z,0.00
2023-02-06T04:01:23.299Z,0.00
2023-02-06T04:02:22.202Z,0.00
2023-02-06T04:03:22.176Z,0.00
2023-02-06T04:04:22.162Z,0.00
2023-02-06T04:05:22.152Z,0.00
2023-02-06T04:06:22.148Z,0.00
2023-02-06T04:07:22.208Z,0.00
2023-02-06T04:08:22.128Z,0.00
2023-02-06T04:09:22.128Z,0.00
2023-02-06T04:10:22.211Z,0.00
2023-02-06T04:11:22.116Z,0.00
2023-02-06T04:12:22.120Z,0.00
2023-02-06T04:13:22.133Z,0.00
2023-02-06T04:14:22.099Z,0.00
2023-02-06T04:15:22.087Z,0.00
2023-02-06T04:16:22.153Z,0.00
2023-02-06T04:17:40.730Z,0.00
2023-02-06T04:18:24.082Z,0.00
2023-02-06T04:19:22.102Z,0.00
2023-02-06T04:20:22.053Z,0.00
2023-02-06T04:21:22.098Z,0.00
2023-02-06T04:22:22.062Z,0.00
2023-02-06T04:23:22.045Z,0.00
2023-02-06T04:24:22.030Z,0.00
2023-02-06T04:25:22.022Z,0.00
2023-02-06T04:26:22.016Z,0.00
2023-02-06T04:27:21.996Z,0.00
2023-02-06T04:28:22.078Z,0.00
2023-02-06T04:29:21.992Z,0.00
2023-02-06T04:30:22.042Z,0.00
2023-02-06T04:31:21.996Z,0.00
2023-02-06T04:32:21.976Z,0.00
2023-02-06T04:33:22.083Z,0.00
2023-02-06T04:34:21.973Z,0.00
2023-02-06T04:35:21.938Z,0.00
2023-02-06T04:36:21.959Z,0.00
2023-02-06T04:37:21.942Z,0.00
2023-02-06T04:38:21.940Z,0.00
2023-02-06T04:39:21.925Z,0.00
2023-02-06T04:40:21.922Z,0.00
2023-02-06T04:41:21.916Z,0.00
2023-02-06T04:42:21.904Z,0.00
2023-02-06T04:43:21.899Z,0.00
2023-02-06T04:44:21.880Z,0.00
2023-02-06T04:45:22.875Z,0.00
2023-02-06T04:46:21.924Z,0.00
2023-02-06T04:47:21.867Z,0.00
2023-02-06T04:48:21.865Z,0.00
2023-02-06T04:49:21.857Z,0.00
2023-02-06T04:50:21.852Z,0.00
2023-02-06T04:51:21.850Z,0.00
2023-02-06T04:52:21.851Z,0.00
2023-02-06T04:53:21.852Z,0.00
2023-02-06T04:54:21.834Z,0.00
2023-02-06T04:55:21.833Z,0.00
2023-02-06T04:56:21.823Z,0.00
2023-02-06T04:57:21.804Z,0.00
2023-02-06T04:58:21.800Z,0.00
2023-02-06T04:59:21.795Z,0.00
2023-02-06T05:00:21.781Z,0.00
2023-02-06T05:01:21.804Z,0.00
2023-02-06T05:02:21.809Z,0.00
2023-02-06T05:03:21.759Z,0.00
2023-02-06T05:04:21.753Z,0.00
2023-02-06T05:05:21.876Z,0.00
2023-02-06T05:06:21.761Z,0.00
2023-02-06T05:07:21.734Z,0.00
2023-02-06T05:08:21.720Z,0.00
2023-02-06T05:09:21.710Z,0.00
2023-02-06T05:10:21.702Z,0.00
2023-02-06T05:11:21.715Z,0.00
2023-02-06T05:12:21.690Z,0.00
2023-02-06T05:13:21.682Z,0.00
2023-02-06T05:14:21.679Z,0.00
2023-02-06T05:15:21.675Z,0.00
2023-02-06T05:16:21.705Z,0.00
2023-02-06T05:17:21.669Z,0.00
2023-02-06T05:18:21.654Z,0.00
2023-02-06T05:19:21.642Z,0.00
2023-02-06T05:20:21.632Z,0.00
2023-02-06T05:21:21.661Z,0.00
2023-02-06T05:22:21.633Z,0.00
2023-02-06T05:23:21.629Z,0.00
2023-02-06T05:24:21.612Z,0.00
2023-02-06T05:25:21.600Z,0.00
2023-02-06T05:26:21.614Z,0.00
2023-02-06T05:27:21.587Z,0.00
2023-02-06T05:28:21.594Z,0.00
2023-02-06T05:29:21.583Z,0.00
2023-02-06T05:30:21.564Z,0.00
2023-02-06T05:31:21.651Z,0.00
2023-02-06T05:32:21.564Z,0.00
2023-02-06T05:33:21.555Z,0.00
2023-02-06T05:34:21.558Z,0.00
2023-02-06T05:35:21.536Z,0.00
2023-02-06T05:36:21.524Z,0.00
2023-02-06T05:37:21.522Z,0.00
2023-02-06T05:38:21.537Z,0.00
2023-02-06T05:39:21.509Z,0.00
2023-02-06T05:40:21.507Z,0.00
2023-02-06T05:41:21.522Z,0.00
2023-02-06T05:42:21.493Z,0.00
2023-02-06T05:43:21.618Z,0.00
2023-02-06T05:44:21.674Z,0.00
2023-02-06T05:45:21.483Z,0.00
2023-02-06T05:46:21.559Z,0.00
2023-02-06T05:47:21.480Z,0.00
2023-02-06T05:48:21.464Z,0.00
2023-02-06T05:49:21.461Z,0.00
2023-02-06T05:50:21.463Z,0.00
2023-02-06T05:51:21.457Z,0.00
2023-02-06T05:52:21.442Z,0.00
2023-02-06T05:53:21.423Z,0.00
2023-02-06T05:54:21.456Z,0.00
2023-02-06T05:55:21.415Z,0.00
2023-02-06T05:56:21.406Z,0.00
2023-02-06T05:57:21.404Z,0.00
2023-02-06T05:58:21.394Z,0.00
2023-02-06T05:59:21.409Z,0.00
2023-02-06T06:00:21.405Z,0.00
2023-02-06T06:01:21.388Z,0.00
2023-02-06T06:02:21.369Z,0.00
2023-02-06T06:03:21.366Z,0.00
2023-02-06T06:04:21.480Z,0.00
2023-02-06T06:05:21.378Z,0.00
2023-02-06T06:06:21.349Z,0.00
2023-02-06T06:07:21.360Z,0.00
2023-02-06T06:08:21.388Z,0.00
2023-02-06T06:09:21.337Z,0.00
2023-02-06T06:10:21.327Z,0.00
2023-02-06T06:11:21.321Z,0.00
2023-02-06T06:12:21.335Z,0.00
2023-02-06T06:13:21.315Z,0.00
2023-02-06T06:14:21.292Z,0.00
2023-02-06T06:15:21.296Z,0.00
2023-02-06T06:16:21.319Z,0.00
2023-02-06T06:17:21.330Z,0.00
2023-02-06T06:18:21.280Z,0.00
2023-02-06T06:19:21.268Z,0.00
2023-02-06T06:20:21.254Z,0.00
2023-02-06T06:21:21.252Z,0.00
2023-02-06T06:22:21.251Z,0.00
2023-02-06T06:23:21.233Z,0.00
2023-02-06T06:24:21.228Z,0.00
2023-02-06T06:25:21.231Z,0.00
2023-02-06T06:26:21.212Z,0.00
2023-02-06T06:27:21.233Z,0.00
2023-02-06T06:28:21.268Z,0.00
2023-02-06T06:29:21.199Z,0.00
2023-02-06T06:30:21.195Z,0.00
2023-02-06T06:31:21.237Z,0.00
2023-02-06T06:32:21.183Z,0.00
2023-02-06T06:33:21.171Z,0.00
2023-02-06T06:34:21.167Z,0.00
2023-02-06T06:35:21.164Z,0.00
2023-02-06T06:36:21.154Z,0.00
2023-02-06T06:37:21.166Z,0.00
2023-02-06T06:38:21.142Z,0.00
2023-02-06T06:39:21.136Z,0.00
2023-02-06T06:40:21.130Z,0.00
2023-02-06T06:41:21.121Z,0.00
2023-02-06T06:42:21.118Z,0.00
2023-02-06T06:43:21.138Z,0.00
2023-02-06T06:44:21.090Z,0.00
2023-02-06T06:45:21.139Z,0.00
2023-02-06T06:46:21.085Z,0.00
2023-02-06T06:47:21.179Z,0.00
2023-02-06T06:48:21.116Z,0.00
2023-02-06T06:49:21.064Z,0.00
2023-02-06T06:50:21.046Z,0.00
2023-02-06T06:51:21.041Z,0.00
2023-02-06T06:52:25.222Z,0.00
2023-02-06T06:53:22.041Z,0.00
2023-02-06T06:54:21.038Z,0.00
2023-02-06T06:55:21.023Z,5.62
2023-02-06T06:56:21.010Z,5.62
2023-02-06T06:57:21.156Z,5.62
2023-02-06T06:58:21.004Z,5.62
2023-02-06T06:59:20.990Z,5.62
2023-02-06T07:00:20.986Z,5.62
2023-02-06T07:01:21.036Z,5.62
2023-02-06T07:02:20.975Z,5.62
2023-02-06T07:03:21.000Z,11.25
2023-02-06T07:04:20.976Z,11.25
2023-02-06T07:05:20.946Z,5.62
2023-02-06T07:06:20.989Z,5.62
2023-02-06T07:07:20.968Z,11.25
2023-02-06T07:08:20.943Z,11.25
2023-02-06T07:09:20.938Z,11.25
2023-02-06T07:10:20.923Z,11.25
2023-02-06T07:11:20.928Z,11.25
2023-02-06T07:12:20.926Z,11.25
2023-02-06T07:13:20.905Z,16.88
2023-02-06T07:14:20.906Z,16.88
2023-02-06T07:15:20.886Z,16.88
2023-02-06T07:16:20.915Z,16.88
2023-02-06T07:17:20.878Z,16.88
2023-02-06T07:18:20.875Z,16.88
2023-02-06T07:19:20.859Z,22.50
2023-02-06T07:20:20.861Z,22.50
2023-02-06T07:21:20.855Z,22.50
2023-02-06T07:22:20.842Z,22.50
2023-02-06T07:23:21.842Z,22.50
2023-02-06T07:24:20.831Z,22.50
2023-02-06T07:25:20.818Z,28.12
2023-02-06T07:26:20.822Z,28.12
2023-02-06T07:27:20.815Z,28.12
2023-02-06T07:28:20.858Z,28.12
2023-02-06T07:29:20.822Z,28.12
2023-02-06T07:30:20.834Z,28.12
2023-02-06T07:31:20.834Z,28.12
2023-02-06T07:32:20.779Z,28.12
2023-02-06T07:33:20.778Z,33.75
2023-02-06T07:34:20.768Z,33.75
2023-02-06T07:35:20.759Z,33.75
2023-02-06T07:36:20.855Z,39.38
2023-02-06T07:37:20.748Z,39.38
2023-02-06T07:38:20.760Z,45.00
2023-02-06T07:39:20.753Z,45.00
2023-02-06T07:40:20.726Z,50.62
2023-02-06T07:41:20.725Z,50.62
2023-02-06T07:42:20.720Z,50.62
2023-02-06T07:43:20.699Z,56.25
2023-02-06T07:44:20.718Z,67.50
2023-02-06T07:45:20.698Z,78.75
2023-02-06T07:46:20.761Z,78.75
2023-02-06T07:47:20.683Z,78.75
2023-02-06T07:48:20.666Z,78.75
2023-02-06T07:49:20.688Z,101.25
2023-02-06T07:50:20.674Z,106.88
2023-02-06T07:51:20.651Z,90.00
2023-02-06T07:52:20.646Z,78.75
2023-02-06T07:53:20.638Z,78.75
2023-02-06T07:54:21.031Z,84.38
2023-02-06T07:55:21.645Z,140.62
2023-02-06T07:56:20.610Z,112.50
2023-02-06T07:57:20.614Z,433.12
2023-02-06T07:58:20.617Z,129.38
2023-02-06T07:59:20.612Z,163.12
2023-02-06T08:00:20.598Z,95.62
2023-02-06T08:01:20.690Z,90.00
2023-02-06T08:02:20.582Z,90.00
2023-02-06T08:03:20.566Z,95.62
2023-02-06T08:04:20.595Z,101.25
2023-02-06T08:05:20.562Z,95.62
2023-02-06T08:06:21.829Z,90.00
2023-02-06T08:07:20.552Z,90.00
2023-02-06T08:08:20.588Z,90.00
2023-02-06T08:09:20.543Z,90.00
2023-02-06T08:10:20.526Z,101.25
2023-02-06T08:11:20.521Z,101.25
2023-02-06T08:12:20.526Z,95.62
2023-02-06T08:13:20.513Z,95.62
2023-02-06T08:14:20.502Z,95.62
2023-02-06T08:15:20.498Z,101.25
2023-02-06T08:16:20.519Z,101.25
2023-02-06T08:17:20.501Z,106.88
2023-02-06T08:18:20.471Z,118.12
2023-02-06T08:19:20.473Z,129.38
2023-02-06T08:20:20.484Z,151.88
2023-02-06T08:21:20.454Z,168.75
2023-02-06T08:22:20.462Z,174.38
2023-02-06T08:23:20.972Z,174.38
2023-02-06T08:24:21.438Z,185.62
2023-02-06T08:25:20.440Z,202.50
2023-02-06T08:26:20.425Z,219.38
2023-02-06T08:27:20.429Z,236.25
2023-02-06T08:28:20.434Z,241.88
2023-02-06T08:29:20.399Z,230.62
2023-02-06T08:30:20.407Z,225.00
2023-02-06T08:31:20.605Z,225.00
2023-02-06T08:32:20.374Z,230.62
2023-02-06T08:33:20.376Z,230.62
2023-02-06T08:34:20.365Z,225.00
2023-02-06T08:35:20.358Z,230.62
2023-02-06T08:36:20.352Z,230.62
2023-02-06T08:37:20.345Z,230.62
2023-02-06T08:38:20.366Z,219.38
2023-02-06T08:39:20.341Z,213.75
2023-02-06T08:40:20.325Z,213.75
2023-02-06T08:41:20.317Z,219.38
2023-02-06T08:42:20.302Z,230.62
2023-02-06T08:43:20.306Z,258.75
2023-02-06T08:44:20.289Z,286.88
2023-02-06T08:45:20.301Z,303.75
2023-02-06T08:46:20.313Z,343.12
2023-02-06T08:47:20.278Z,320.62
2023-02-06T08:48:20.309Z,331.88
2023-02-06T08:49:20.328Z,320.62
2023-02-06T08:50:20.286Z,298.12
2023-02-06T08:51:20.255Z,298.12
2023-02-06T08:52:20.235Z,309.38
2023-02-06T08:53:21.230Z,331.88
2023-02-06T08:54:20.247Z,343.12
2023-02-06T08:55:20.237Z,376.88
2023-02-06T08:56:20.248Z,337.50
2023-02-06T08:57:20.210Z,376.88
2023-02-06T08:58:20.200Z,309.38
2023-02-06T08:59:20.206Z,270.00
2023-02-06T09:00:20.194Z,230.62
2023-02-06T09:01:20.252Z,225.00
2023-02-06T09:02:20.317Z,225.00
2023-02-06T09:03:20.158Z,213.75
2023-02-06T09:04:20.156Z,213.75
2023-02-06T09:05:20.191Z,208.12
2023-02-06T09:06:20.150Z,213.75
2023-02-06T09:07:20.145Z,225.00
2023-02-06T09:08:20.150Z,230.62
2023-02-06T09:09:20.134Z,241.88
2023-02-06T09:10:27.509Z,230.62
2023-02-06T09:11:21.118Z,230.62
2023-02-06T09:12:20.100Z,236.25
2023-02-06T09:13:20.126Z,241.88
2023-02-06T09:14:20.094Z,264.38
2023-02-06T09:15:20.079Z,315.00
2023-02-06T09:16:20.184Z,551.25
2023-02-06T09:17:20.068Z,348.75
2023-02-06T09:18:20.053Z,326.25
2023-02-06T09:19:20.061Z,315.00
2023-02-06T09:20:20.042Z,326.25
2023-02-06T09:21:20.153Z,365.62
2023-02-06T09:22:20.034Z,388.12
2023-02-06T09:23:20.015Z,399.38
2023-02-06T09:24:21.012Z,399.38
2023-02-06T09:25:20.001Z,388.12
2023-02-06T09:26:19.997Z,405.00
2023-02-06T09:27:19.989Z,506.25
2023-02-06T09:28:20.071Z,725.62
2023-02-06T09:29:19.994Z,1226.25
2023-02-06T09:30:20.039Z,691.88
2023-02-06T09:31:19.977Z,455.62
2023-02-06T09:32:19.946Z,410.62
2023-02-06T09:33:19.948Z,410.62
2023-02-06T09:34:19.931Z,410.62
2023-02-06T09:35:19.942Z,410.62
2023-02-06T09:36:19.924Z,365.62
2023-02-06T09:37:19.957Z,376.88
2023-02-06T09:38:19.902Z,399.38
2023-02-06T09:39:19.904Z,433.12
2023-02-06T09:40:19.959Z,450.00
2023-02-06T09:41:19.891Z,365.62
2023-02-06T09:42:19.894Z,360.00
2023-02-06T09:43:19.878Z,365.62
2023-02-06T09:44:19.882Z,376.88
2023-02-06T09:45:19.866Z,500.62
2023-02-06T09:46:19.951Z,1918.12
2023-02-06T09:47:19.850Z,1018.12
2023-02-06T09:48:19.854Z,1800.00
2023-02-06T09:49:19.850Z,1805.62
2023-02-06T09:50:19.857Z,1985.62
2023-02-06T09:51:19.817Z,2103.75
2023-02-06T09:52:19.838Z,1996.88
2023-02-06T09:53:19.805Z,2013.75
2023-02-06T09:54:19.798Z,2098.12
2023-02-06T09:55:19.798Z,2041.88
2023-02-06T09:56:19.793Z,1991.25
2023-02-06T09:57:19.786Z,646.88
2023-02-06T09:58:19.775Z,894.38
2023-02-06T09:59:19.814Z,2148.75
2023-02-06T10:00:19.767Z,2008.12
2023-02-06T10:01:19.773Z,2154.38
2023-02-06T10:02:19.756Z,2098.12
2023-02-06T10:03:20.128Z,2019.38
2023-02-06T10:04:19.791Z,2188.12
2023-02-06T10:05:19.790Z,2362.50
2023-02-06T10:06:19.776Z,2199.38
2023-02-06T10:07:19.711Z,2092.50
2023-02-06T10:08:19.819Z,2131.88
2023-02-06T10:09:19.737Z,2311.88
2023-02-06T10:10:19.714Z,2458.12
2023-02-06T10:11:19.678Z,2289.38
2023-02-06T10:12:19.712Z,2070.00
2023-02-06T10:13:19.676Z,2143.12
2023-02-06T10:14:19.662Z,2238.75
2023-02-06T10:15:19.703Z,2311.88
2023-02-06T10:16:19.722Z,2407.50
2023-02-06T10:17:19.656Z,2441.25
2023-02-06T10:18:19.643Z,2385.00
2023-02-06T10:19:19.630Z,2525.62
2023-02-06T10:20:19.620Z,2435.62
2023-02-06T10:21:19.626Z,2250.00
2023-02-06T10:22:19.654Z,2216.25
2023-02-06T10:23:19.606Z,2295.00
2023-02-06T10:24:19.596Z,2295.00
2023-02-06T10:25:19.596Z,2362.50
2023-02-06T10:26:19.594Z,2008.12
2023-02-06T10:27:19.584Z,978.75
2023-02-06T10:28:19.577Z,1760.62
2023-02-06T10:29:19.565Z,2666.25
2023-02-06T10:30:19.560Z,2531.25
2023-02-06T10:31:19.689Z,2255.62
2023-02-06T10:32:19.642Z,2086.88
2023-02-06T10:33:25.618Z,1873.12
2023-02-06T10:34:21.541Z,2266.88
2023-02-06T10:35:19.530Z,2356.88
2023-02-06T10:36:19.531Z,1822.50
2023-02-06T10:37:19.527Z,2508.75
2023-02-06T10:38:19.501Z,2328.75
2023-02-06T10:39:19.500Z,2328.75
2023-02-06T10:40:19.505Z,2351.25
2023-02-06T10:41:19.484Z,2514.38
2023-02-06T10:42:21.724Z,2604.38
2023-02-06T10:43:19.483Z,2424.38
2023-02-06T10:44:19.464Z,2418.75
2023-02-06T10:45:21.040Z,2508.75
2023-02-06T10:46:20.736Z,2486.25
2023-02-06T10:47:19.457Z,2531.25
2023-02-06T10:48:19.453Z,2587.50
2023-02-06T10:49:19.453Z,2323.12
2023-02-06T10:50:19.446Z,2452.50
2023-02-06T10:51:19.526Z,2486.25
2023-02-06T10:52:19.459Z,2413.12
2023-02-06T10:53:19.469Z,2565.00
2023-02-06T10:54:19.442Z,2480.62
2023-02-06T10:55:19.427Z,1220.62
2023-02-06T10:56:19.418Z,2424.38
2023-02-06T10:57:19.401Z,2761.88
2023-02-06T10:58:19.402Z,2615.62
2023-02-06T10:59:19.390Z,2025.00
2023-02-06T11:00:19.375Z,2109.38
2023-02-06T11:01:26.127Z,2126.25
2023-02-06T11:02:20.462Z,2165.62
2023-02-06T11:03:19.362Z,2182.50
2023-02-06T11:04:19.365Z,2261.25
2023-02-06T11:05:19.354Z,2385.00
2023-02-06T11:06:19.354Z,2469.38
2023-02-06T11:07:19.345Z,2548.12
2023-02-06T11:08:19.324Z,2593.12
2023-02-06T11:09:19.329Z,2407.50
2023-02-06T11:10:19.481Z,2311.88
2023-02-06T11:11:19.345Z,2334.38
2023-02-06T11:12:19.297Z,2334.38
2023-02-06T11:13:19.391Z,2418.75
2023-02-06T11:14:19.300Z,2463.75
2023-02-06T11:15:19.311Z,2480.62
2023-02-06T11:16:19.300Z,2469.38
2023-02-06T11:17:19.298Z,2424.38
2023-02-06T11:18:19.288Z,2638.12
2023-02-06T11:19:19.273Z,2514.38
2023-02-06T11:20:19.270Z,2407.50
2023-02-06T11:21:19.306Z,2323.12
2023-02-06T11:22:19.261Z,2154.38
2023-02-06T11:23:19.270Z,2368.12
2023-02-06T11:24:19.242Z,2570.62
2023-02-06T11:25:19.231Z,2677.50
2023-02-06T11:26:19.279Z,2486.25
2023-02-06T11:27:19.227Z,2070.00
2023-02-06T11:28:19.273Z,2199.38
2023-02-06T11:29:19.235Z,2458.12
2023-02-06T11:30:19.218Z,2390.62
2023-02-06T11:31:19.258Z,2328.75
2023-02-06T11:32:19.210Z,2565.00
2023-02-06T11:33:19.189Z,2503.12
2023-02-06T11:34:19.246Z,2626.88
2023-02-06T11:35:19.189Z,2643.75
2023-02-06T11:36:19.177Z,2407.50
2023-02-06T11:37:19.182Z,2317.50
2023-02-06T11:38:19.169Z,2576.25
2023-02-06T11:39:19.164Z,2458.12
2023-02-06T11:40:19.177Z,2396.25
2023-02-06T11:41:19.157Z,2289.38
2023-02-06T11:42:19.139Z,2216.25
2023-02-06T11:43:19.155Z,2362.50
2023-02-06T11:44:19.119Z,2632.50
2023-02-06T11:45:19.131Z,2503.12
2023-02-06T11:46:19.213Z,2278.12
2023-02-06T11:47:19.124Z,2424.38
2023-02-06T11:48:19.113Z,2632.50
2023-02-06T11:49:19.129Z,2598.75
2023-02-06T11:50:19.092Z,2531.25
2023-02-06T11:51:19.105Z,2340.00
2023-02-06T11:52:19.094Z,2435.62
2023-02-06T11:53:19.085Z,2593.12
2023-02-06T11:54:19.076Z,2401.88
2023-02-06T11:55:19.074Z,2306.25
2023-02-06T11:56:19.084Z,2244.38
2023-02-06T11:57:19.059Z,2070.00
2023-02-06T11:58:19.058Z,2300.62
2023-02-06T11:59:19.051Z,2475.00
2023-02-06T12:00:19.073Z,2671.88
2023-02-06T12:01:19.061Z,2480.62
2023-02-06T12:02:19.070Z,2160.00
2023-02-06T12:03:19.049Z,2148.75
2023-02-06T12:04:19.030Z,2171.25
2023-02-06T12:05:19.009Z,2480.62
2023-02-06T12:06:19.039Z,2452.50
2023-02-06T12:07:19.002Z,1923.75
2023-02-06T12:08:19.006Z,1946.25
2023-02-06T12:09:18.989Z,2143.12
2023-02-06T12:10:18.997Z,2154.38
2023-02-06T12:11:18.981Z,1884.38
2023-02-06T12:12:19.011Z,2131.88
2023-02-06T12:13:18.974Z,2131.88
2023-02-06T12:14:19.339Z,2081.25
2023-02-06T12:15:43.734Z,2362.50
2023-02-06T12:16:20.977Z,2188.12
2023-02-06T12:17:18.960Z,2261.25
2023-02-06T12:18:18.950Z,2559.38
2023-02-06T12:19:18.939Z,2385.00
2023-02-06T12:20:18.928Z,2255.62
2023-02-06T12:21:18.927Z,2340.00
2023-02-06T12:22:19.011Z,2205.00
2023-02-06T12:23:18.916Z,2176.88
2023-02-06T12:24:18.910Z,2587.50
2023-02-06T12:25:18.908Z,2576.25
2023-02-06T12:26:18.894Z,2396.25
2023-02-06T12:27:18.903Z,2210.62
2023-02-06T12:28:18.953Z,2070.00
2023-02-06T12:29:18.873Z,2311.88
2023-02-06T12:30:18.873Z,2188.12
2023-02-06T12:31:19.151Z,2401.88
2023-02-06T12:32:18.879Z,2553.75
2023-02-06T12:33:18.909Z,2199.38
2023-02-06T12:34:18.850Z,2075.62
2023-02-06T12:35:18.850Z,2126.25
2023-02-06T12:36:18.847Z,2120.62
2023-02-06T12:37:18.837Z,2131.88
2023-02-06T12:38:18.821Z,2176.88
2023-02-06T12:39:18.814Z,2143.12
2023-02-06T12:40:18.809Z,2131.88
2023-02-06T12:41:18.807Z,2148.75
2023-02-06T12:42:18.813Z,2047.50
2023-02-06T12:43:18.809Z,2070.00
2023-02-06T12:44:18.785Z,2086.88
2023-02-06T12:45:18.797Z,2008.12
2023-02-06T12:46:19.367Z,2064.38
2023-02-06T12:47:18.770Z,2154.38
2023-02-06T12:48:18.768Z,2250.00
2023-02-06T12:49:18.759Z,1237.50
2023-02-06T12:50:18.768Z,2283.75
2023-02-06T12:51:18.805Z,725.62